CheckWX is a tool to help pilots better visualize weather data.  It is not intended as a substitute for an official pre-flight weather briefing.

12:49:39 UTC

33N METAR
Delaware Airpark
Dover/Cheswold, Delaware, USA
Current

35 mins ago

K33N 191215Z AUTO 28006KT 4SM BR BKN008 OVC011 07/06 A2981 RMK A01
Observed
Nov-19 @ 12:15 UTC
Wind
  • 280° at 6 KTS
Visibility
4 SM
Flight Rules
IFR
Conditions
Mist
Cloud Levels
  • Broken at 800' AGL
  • Overcast at 1,100' AGL
Temperature
C / 45°F
Dewpoint
C / 43°F
Humidity
93%
Altimeter
29.81" Hg
Pressure
1009.52 hPa
Previous

55 mins ago

K33N 191155Z AUTO 25005KT 3SM BR OVC006 07/06 A2981 RMK A01
Observed
Nov-19 @ 11:55 UTC
Wind
  • 250° at 5 KTS
Visibility
3 SM
Flight Rules
IFR
Conditions
Mist
Cloud Levels
  • Overcast at 600' AGL
Temperature
C / 45°F
Dewpoint
C / 43°F
Humidity
93%
Altimeter
29.81" Hg
Pressure
1009.52 hPa
Previous

1 hour ago

K33N 191130Z AUTO 25008KT 3SM BR OVC005 06/06 A2980 RMK A01
Observed
Nov-19 @ 11:30 UTC
Wind
  • 250° at 8 KTS
Visibility
3 SM
Flight Rules
IFR
Conditions
Mist
Cloud Levels
  • Overcast at 500' AGL
Temperature
C / 43°F
Dewpoint
C / 43°F
Humidity
100%
Altimeter
29.8" Hg
Pressure
1009.12 hPa